Decoded Metar for LFRS (NANTES in FRANCE) (IATA:NTE) | Meteo·Mobile Aviation Weather
aviador You're here:

LFRS Decoded Metar

NANTES in FRANCE
Report Time2019-02-23 01:00:00
UTC Time2019-02-23 01:14:26
Flight Rules vfr VFR
Wind080° at 06 kt
W.Decomp.*RWY 03: 3.7 kt HW 4.7 kt RCW
W.Rank080° ranks 30
Current wind is below 080° avg. (7.3)
Visibility9999 m
Phenomena:N/A
Clouds:N/A
Expected CloudBase > 2,000 ft AGL from Temp-Dew spread
CeilingNone
Temp10°C (ISA -5)
Dew Point05°C (71% RH)
AAT6.7°C
QNH1030 hPa
Density Alt-942 ft
Elevation89 ft
Report Wrong Elevation
Raw Report
LFRS 230100Z AUTO 08006KT CAVOK 10/05 Q1030 TEMPO 3000 BR=

Extra information for LFRS:More info

Metar Taf Metar & Taf Last 4 Metars F.Rules Stats Wind Profile Meteogram Temp Stats Airport Information Weather charts Add Link Nearby VenuesMetar ALERT Operation Metar Decoded Social comments